Time;durP1;ratioP1;P1;durP2;ratioP2;P2;SDS_P1;SDS_P2;PMS_P1;PMS_P2;Temp;Humidity;BMP_temperature;BMP_pressure;BME280_temperature;BME280_humidity;BME280_pressure;Samples;Min_cycle;Max_cycle;Signal;HPM_P1;HPM_P2
2022/04/30 00:02:15;;;;;;;1.90;1.80;;;10.70;93.10;;;;;;5094234;28;20458;-44
2022/04/30 00:04:43;;;;;;;2.50;2.00;;;10.70;93.00;;;;;;5093997;28;20447;-45
2022/04/30 00:07:14;;;;;;;3.10;2.27;;;10.70;92.60;;;;;;5093524;28;20529;-44
2022/04/30 00:09:42;;;;;;;2.20;2.00;;;10.70;92.30;;;;;;5094074;28;20463;-45
2022/04/30 00:12:11;;;;;;;2.50;2.30;;;10.90;92.40;;;;;;5093747;28;20447;-45
2022/04/30 00:14:39;;;;;;;2.90;2.10;;;10.90;92.20;;;;;;5092862;28;20443;-44
2022/04/30 00:17:07;;;;;;;2.60;2.40;;;10.80;92.90;;;;;;5093830;28;20435;-45
2022/04/30 00:19:35;;;;;;;2.30;1.80;;;10.90;93.30;;;;;;5093867;28;20567;-45
2022/04/30 00:22:03;;;;;;;2.37;2.17;;;10.80;92.70;;;;;;5093324;28;20439;-45
2022/04/30 00:24:30;;;;;;;2.43;1.97;;;10.80;92.40;;;;;;5093372;28;20471;-44
2022/04/30 00:26:59;;;;;;;2.07;1.87;;;10.70;93.30;;;;;;5093096;28;20482;-44
2022/04/30 00:29:29;;;;;;;2.50;2.30;;;10.60;92.60;;;;;;5093429;28;20493;-45
2022/04/30 00:31:56;;;;;;;4.23;1.90;;;10.70;93.40;;;;;;5093471;28;20445;-45
2022/04/30 00:34:24;;;;;;;3.30;2.30;;;10.80;93.90;;;;;;5093201;28;20439;-44
2022/04/30 00:36:51;;;;;;;2.80;2.10;;;10.80;94.00;;;;;;5093487;28;20467;-45
2022/04/30 00:39:18;;;;;;;3.20;2.50;;;10.50;93.70;;;;;;5093427;28;20691;-45
2022/04/30 00:41:46;;;;;;;3.10;1.90;;;10.20;94.10;;;;;;5093668;28;20447;-45
2022/04/30 00:44:18;;;;;;;2.50;2.30;;;10.20;94.30;;;;;;5092774;28;20444;-44
2022/04/30 00:46:47;;;;;;;2.40;2.20;;;10.20;93.90;;;;;;5092650;28;20860;-44
2022/04/30 00:49:14;;;;;;;2.13;1.93;;;10.40;93.60;;;;;;5092133;28;20532;-44
2022/04/30 00:51:43;;;;;;;2.90;2.23;;;10.40;93.30;;;;;;5092792;28;20478;-44
2022/04/30 00:54:12;;;;;;;3.40;3.00;;;10.40;93.10;;;;;;5092427;28;20446;-44
2022/04/30 00:56:44;;;;;;;3.73;2.20;;;10.40;93.30;;;;;;5092978;28;20529;-44
2022/04/30 00:59:17;;;;;;;3.37;3.07;;;10.40;94.40;;;;;;5092446;28;20467;-44
2022/04/30 01:01:45;;;;;;;3.27;2.97;;;10.50;94.50;;;;;;5092567;28;20450;-44
2022/04/30 01:04:14;;;;;;;2.57;2.37;;;10.50;94.60;;;;;;5092224;28;20479;-44
2022/04/30 01:07:01;;;;;;;3.47;2.80;;;10.20;94.80;;;;;;5092476;28;20451;-44
2022/04/30 01:09:31;;;;;;;2.43;2.23;;;10.20;94.50;;;;;;5092305;28;20486;-45
2022/04/30 01:12:01;;;;;;;3.93;3.17;;;10.20;94.60;;;;;;5092559;28;20450;-44
2022/04/30 01:14:31;;;;;;;3.10;2.50;;;10.10;95.10;;;;;;5092100;28;20925;-44
2022/04/30 01:16:59;;;;;;;2.43;2.00;;;10.20;95.30;;;;;;5092290;28;20488;-44
2022/04/30 01:19:28;;;;;;;2.30;2.10;;;10.20;95.20;;;;;;5091906;28;20972;-44
2022/04/30 01:21:58;;;;;;;2.20;2.00;;;10.20;95.40;;;;;;5092267;28;20442;-45
2022/04/30 01:24:30;;;;;;;2.50;2.00;;;10.30;95.20;;;;;;5092299;28;20442;-44
2022/04/30 01:26:59;;;;;;;3.07;1.90;;;10.30;94.40;;;;;;5091659;28;20458;-44
2022/04/30 01:29:30;;;;;;;2.50;2.30;;;10.20;95.20;;;;;;5092136;28;20860;-44
2022/04/30 01:37:28;;;;;;;2.47;2.20;;;10.30;95.80;;;;;;5091805;28;21042;-45
2022/04/30 01:40:03;;;;;;;3.77;2.40;;;10.30;95.30;;;;;;5091839;28;20461;-45
2022/04/30 01:42:35;;;;;;;3.03;2.73;;;10.30;95.60;;;;;;5091773;28;20780;-45
2022/04/30 01:45:04;;;;;;;3.00;2.20;;;10.30;96.00;;;;;;5092088;28;20474;-44
2022/04/30 01:47:33;;;;;;;2.50;2.10;;;10.40;95.90;;;;;;5091713;28;20439;-44
2022/04/30 01:50:00;;;;;;;2.50;2.30;;;10.40;96.00;;;;;;5091542;28;20932;-45
2022/04/30 01:52:28;;;;;;;2.60;2.40;;;10.40;95.50;;;;;;5091847;28;20435;-45
2022/04/30 01:54:54;;;;;;;2.23;2.03;;;10.40;95.50;;;;;;5091797;28;20974;-44
2022/04/30 01:57:25;;;;;;;2.83;1.73;;;10.30;95.70;;;;;;5091497;28;20529;-45
2022/04/30 01:59:53;;;;;;;2.20;1.60;;;10.30;95.90;;;;;;5091390;28;20455;-45
2022/04/30 02:02:22;;;;;;;2.27;2.07;;;10.30;96.00;;;;;;5091498;28;20486;-44
2022/04/30 02:04:51;;;;;;;2.93;2.37;;;10.20;96.30;;;;;;5091273;28;20440;-44
2022/04/30 02:07:18;;;;;;;2.67;2.30;;;10.20;96.50;;;;;;5091295;28;20436;-45
2022/04/30 02:09:46;;;;;;;2.40;2.20;;;10.30;96.90;;;;;;5091134;28;20536;-44
2022/04/30 02:12:13;;;;;;;2.40;2.00;;;10.30;96.30;;;;;;5091363;28;20447;-44
2022/04/30 02:14:48;;;;;;;2.90;2.27;;;10.40;96.20;;;;;;5091317;28;20534;-45
2022/04/30 02:17:17;;;;;;;4.30;3.13;;;10.40;96.00;;;;;;5091492;28;20492;-45
2022/04/30 02:22:32;;;;;;;2.00;1.90;;;10.50;95.40;;;;;;5091094;28;20423;-44
2022/04/30 02:24:59;;;;;;;2.70;2.50;;;10.50;95.30;;;;;;5091099;28;21010;-44
2022/04/30 02:27:27;;;;;;;2.80;2.60;;;10.60;95.90;;;;;;5090810;28;20439;-44
2022/04/30 02:29:55;;;;;;;2.70;2.50;;;10.60;95.90;;;;;;5090972;28;20566;-44
2022/04/30 02:32:22;;;;;;;4.23;2.60;;;10.50;95.60;;;;;;5091086;28;20488;-44
2022/04/30 02:34:49;;;;;;;3.20;2.10;;;10.00;96.40;;;;;;5091018;28;20845;-44
2022/04/30 02:37:16;;;;;;;5.17;2.50;;;9.80;97.20;;;;;;5091298;28;20444;-44
2022/04/30 02:39:45;;;;;;;2.97;2.13;;;9.50;97.30;;;;;;5095346;28;20892;-44
2022/04/30 02:42:13;;;;;;;2.63;2.37;;;9.60;97.00;;;;;;5095002;28;20443;-45
2022/04/30 02:44:40;;;;;;;3.43;2.07;;;9.80;97.20;;;;;;5094999;28;20449;-45
2022/04/30 02:47:09;;;;;;;2.80;2.50;;;9.90;96.90;;;;;;5095294;28;20500;-46
2022/04/30 02:49:38;;;;;;;2.70;2.40;;;10.00;96.40;;;;;;5094861;28;20475;-44
2022/04/30 02:52:06;;;;;;;2.93;2.53;;;10.10;96.20;;;;;;5095172;28;20504;-44
2022/04/30 02:54:34;;;;;;;2.57;2.37;;;10.00;95.70;;;;;;5094954;28;20512;-45
2022/04/30 02:57:01;;;;;;;3.10;2.40;;;9.90;96.50;;;;;;5094999;28;20456;-44
2022/04/30 03:02:14;;;;;;;4.07;2.47;;;9.80;96.60;;;;;;5094836;28;20844;-44
2022/04/30 03:04:41;;;;;;;3.70;2.27;;;9.70;96.90;;;;;;5094938;28;20462;-45
2022/04/30 03:07:11;;;;;;;2.80;2.40;;;9.80;97.30;;;;;;5094759;28;20471;-44
2022/04/30 03:09:39;;;;;;;3.50;2.40;;;9.80;97.40;;;;;;5094635;28;20498;-45
2022/04/30 03:12:09;;;;;;;4.93;2.60;;;9.90;97.10;;;;;;5094715;28;20448;-44
2022/04/30 03:14:36;;;;;;;3.33;2.50;;;9.80;97.00;;;;;;5094772;28;20522;-45
2022/04/30 03:22:35;;;;;;;2.47;2.27;;;9.70;97.30;;;;;;5094517;28;20569;-45
2022/04/30 03:25:02;;;;;;;2.13;1.80;;;9.80;97.30;;;;;;5094614;28;20443;-44
2022/04/30 03:27:29;;;;;;;2.23;2.03;;;9.80;97.10;;;;;;5094233;28;20855;-46
2022/04/30 03:29:55;;;;;;;2.40;2.20;;;9.90;97.40;;;;;;5094538;28;20803;-45
2022/04/30 03:32:24;;;;;;;2.30;2.07;;;9.90;97.20;;;;;;5094438;28;20492;-45
2022/04/30 03:34:52;;;;;;;4.10;2.40;;;9.90;97.30;;;;;;5094551;28;20517;-44
2022/04/30 03:37:19;;;;;;;3.23;2.07;;;9.80;96.90;;;;;;5094679;28;20817;-45
2022/04/30 03:39:46;;;;;;;2.30;2.10;;;9.80;96.90;;;;;;5094649;28;20458;-44
2022/04/30 03:42:13;;;;;;;2.50;2.30;;;9.80;97.40;;;;;;5094681;28;20861;-44
2022/04/30 03:44:40;;;;;;;3.10;2.63;;;9.80;97.70;;;;;;5094179;28;20439;-45
2022/04/30 03:47:07;;;;;;;4.27;2.30;;;9.80;97.60;;;;;;5094663;28;20442;-45
2022/04/30 03:49:34;;;;;;;3.50;2.60;;;9.80;96.70;;;;;;5094088;28;20509;-45
2022/04/30 03:52:03;;;;;;;3.30;2.00;;;9.70;97.60;;;;;;5094232;28;20440;-45
2022/04/30 03:54:31;;;;;;;2.93;2.20;;;9.60;97.60;;;;;;5094322;28;20507;-45
2022/04/30 03:56:58;;;;;;;2.93;2.30;;;9.70;96.80;;;;;;5094370;28;20474;-45
2022/04/30 03:59:25;;;;;;;2.63;2.40;;;9.60;95.90;;;;;;5093759;28;20502;-44
2022/04/30 04:01:52;;;;;;;3.50;2.70;;;9.60;97.30;;;;;;5093994;28;20887;-44
2022/04/30 04:04:19;;;;;;;2.20;2.00;;;9.60;97.70;;;;;;5093734;28;20501;-45
2022/04/30 04:06:47;;;;;;;4.50;2.50;;;9.60;97.90;;;;;;5093833;28;20475;-44
2022/04/30 04:09:15;;;;;;;2.77;2.50;;;9.60;98.30;;;;;;5093958;28;20565;-45
2022/04/30 04:11:42;;;;;;;2.60;2.40;;;9.50;98.00;;;;;;5093831;28;20932;-46
2022/04/30 04:19:38;;;;;;;2.23;2.03;;;9.50;98.10;;;;;;5094346;28;20564;-44
2022/04/30 04:22:05;;;;;;;2.37;2.17;;;9.60;98.00;;;;;;5093701;28;20463;-45
2022/04/30 04:27:18;;;;;;;4.30;2.27;;;9.40;98.30;;;;;;5094082;28;20418;-45
2022/04/30 04:29:46;;;;;;;2.70;2.50;;;9.40;98.50;;;;;;5093683;28;20489;-45
2022/04/30 04:32:13;;;;;;;2.17;1.93;;;9.40;98.50;;;;;;5093594;28;20460;-44
2022/04/30 04:34:40;;;;;;;3.77;2.43;;;9.50;98.50;;;;;;5093503;28;20439;-45
2022/04/30 04:37:07;;;;;;;2.20;2.00;;;9.50;98.30;;;;;;5093219;28;20469;-44
2022/04/30 04:39:36;;;;;;;2.50;2.17;;;9.50;98.00;;;;;;5093161;28;20498;-45
2022/04/30 04:42:03;;;;;;;2.40;2.20;;;9.60;98.50;;;;;;5093279;28;20478;-45
2022/04/30 04:44:30;;;;;;;4.70;4.30;;;9.80;99.70;;;;;;5092772;28;20871;-45
2022/04/30 04:46:57;;;;;;;3.00;2.70;;;9.80;99.60;;;;;;5092848;28;20470;-46
2022/04/30 04:49:24;;;;;;;4.30;2.77;;;9.50;99.90;;;;;;5093140;28;20537;-45
2022/04/30 04:51:51;;;;;;;3.13;2.63;;;9.10;99.90;;;;;;5093088;28;20443;-45
2022/04/30 04:54:18;;;;;;;4.43;2.70;;;9.00;99.90;;;;;;5092779;28;20448;-44
2022/04/30 04:56:46;;;;;;;4.70;2.30;;;9.10;99.90;;;;;;5092862;28;20497;-45
2022/04/30 04:59:14;;;;;;;3.53;2.80;;;9.30;99.90;;;;;;5092731;28;20910;-45
2022/04/30 05:01:41;;;;;;;3.53;2.90;;;9.10;99.90;;;;;;5091986;28;20962;-45
2022/04/30 05:04:08;;;;;;;3.50;3.00;;;9.10;99.90;;;;;;5092632;28;20447;-44
2022/04/30 05:06:35;;;;;;;3.17;2.57;;;9.10;99.90;;;;;;5092694;28;20443;-44
2022/04/30 05:09:02;;;;;;;4.00;2.67;;;9.10;99.90;;;;;;5092114;28;20507;-44
2022/04/30 05:11:29;;;;;;;2.40;2.20;;;9.20;99.90;;;;;;5092554;28;20889;-45
2022/04/30 05:13:57;;;;;;;3.20;2.27;;;9.30;99.90;;;;;;5091807;28;20666;-45
2022/04/30 05:16:25;;;;;;;5.10;2.80;;;9.60;99.90;;;;;;5092218;28;20475;-45
2022/04/30 05:18:51;;;;;;;4.43;3.40;;;9.90;99.90;;;;;;5092033;28;20968;-45
2022/04/30 05:21:18;;;;;;;3.57;3.27;;;10.10;99.90;;;;;;5092312;28;20447;-44
2022/04/30 05:23:45;;;;;;;5.70;3.40;;;10.30;99.90;;;;;;5092127;28;20496;-44
2022/04/30 05:26:13;;;;;;;4.90;3.67;;;10.40;99.70;;;;;;5091625;28;20863;-44
2022/04/30 05:28:40;;;;;;;3.50;3.20;;;10.50;99.90;;;;;;5091869;28;20509;-44
2022/04/30 05:31:08;;;;;;;3.67;3.23;;;10.60;99.90;;;;;;5092083;28;20769;-45
2022/04/30 05:33:36;;;;;;;3.73;3.10;;;10.70;99.60;;;;;;5091712;28;20442;-44
2022/04/30 05:36:03;;;;;;;3.97;2.97;;;10.80;99.90;;;;;;5092277;28;20444;-44
2022/04/30 05:38:30;;;;;;;3.00;2.80;;;10.90;99.90;;;;;;5091930;28;20876;-44
2022/04/30 05:40:57;;;;;;;3.33;3.00;;;10.90;99.90;;;;;;5091856;28;20531;-44
2022/04/30 05:43:24;;;;;;;3.53;3.00;;;11.10;99.90;;;;;;5091741;28;20439;-44
2022/04/30 05:45:51;;;;;;;3.70;3.40;;;11.20;99.90;;;;;;5091748;28;20779;-45
2022/04/30 05:48:19;;;;;;;8.17;7.00;;;11.20;99.90;;;;;;5091805;28;20482;-45
2022/04/30 05:50:46;;;;;;;9.43;7.53;;;11.40;99.90;;;;;;5091578;28;20562;-44
2022/04/30 05:53:13;;;;;;;9.40;7.80;;;11.50;99.90;;;;;;5091745;28;20475;-44
2022/04/30 05:55:40;;;;;;;10.60;8.60;;;11.30;99.90;;;;;;5092059;28;20471;-45
2022/04/30 05:58:07;;;;;;;9.17;7.10;;;11.40;99.90;;;;;;5092627;28;20471;-47
2022/04/30 06:00:34;;;;;;;8.03;7.33;;;11.20;99.90;;;;;;5091617;28;20568;-45
2022/04/30 06:03:01;;;;;;;6.43;5.90;;;10.80;99.90;;;;;;5091401;28;20501;-48
2022/04/30 06:05:30;;;;;;;8.57;5.47;;;10.60;99.90;;;;;;5091401;28;20479;-46
2022/04/30 06:07:56;;;;;;;6.77;5.20;;;10.40;99.90;;;;;;5091639;28;20874;-45
2022/04/30 06:10:23;;;;;;;5.87;5.37;;;10.20;99.90;;;;;;5091257;28;20561;-46
2022/04/30 06:12:50;;;;;;;7.40;5.50;;;10.30;99.90;;;;;;5090108;28;20861;-46
2022/04/30 06:15:17;;;;;;;5.60;4.27;;;10.40;99.90;;;;;;5091417;28;20478;-45
2022/04/30 06:17:44;;;;;;;6.90;6.10;;;10.40;99.90;;;;;;5091460;28;20447;-45
2022/04/30 06:20:12;;;;;;;5.47;4.97;;;10.50;99.90;;;;;;5091093;28;20432;-45
2022/04/30 06:22:41;;;;;;;7.40;5.93;;;10.50;99.90;;;;;;5091273;28;20505;-46
2022/04/30 06:25:10;;;;;;;7.03;6.00;;;10.50;99.90;;;;;;5091337;28;20450;-45
2022/04/30 06:27:37;;;;;;;8.20;7.10;;;10.60;99.90;;;;;;5091216;28;20447;-47
2022/04/30 06:30:04;;;;;;;8.00;7.23;;;10.70;99.90;;;;;;5091129;28;21003;-46
2022/04/30 06:32:31;;;;;;;10.17;7.40;;;10.70;99.90;;;;;;5090718;28;20475;-46
2022/04/30 06:34:59;;;;;;;6.83;5.87;;;10.80;99.90;;;;;;5091483;28;20472;-45
2022/04/30 06:37:26;;;;;;;6.33;4.03;;;10.80;99.90;;;;;;5091311;28;20486;-47
2022/04/30 06:39:54;;;;;;;6.00;5.17;;;10.90;99.90;;;;;;5090983;28;20948;-45
2022/04/30 06:42:21;;;;;;;5.30;4.60;;;11.00;99.90;;;;;;5090701;28;20518;-46
2022/04/30 06:44:48;;;;;;;6.07;5.00;;;11.00;99.90;;;;;;5091093;28;20561;-46
2022/04/30 06:47:15;;;;;;;5.20;4.70;;;11.10;99.90;;;;;;5091360;28;20443;-45
2022/04/30 06:49:42;;;;;;;5.20;3.97;;;11.30;99.90;;;;;;5091024;28;20479;-46
2022/04/30 06:52:09;;;;;;;3.40;3.10;;;11.40;98.80;;;;;;5091020;28;20952;-46
2022/04/30 06:57:22;;;;;;;4.20;3.90;;;11.40;99.90;;;;;;5090719;28;20443;-46
2022/04/30 06:59:51;;;;;;;4.37;3.77;;;11.30;99.90;;;;;;5091281;28;20467;-44
2022/04/30 07:02:21;;;;;;;5.10;3.80;;;11.20;99.90;;;;;;5090985;28;20478;-45
2022/04/30 07:04:51;;;;;;;4.47;3.67;;;11.20;99.90;;;;;;5091277;28;20443;-43
2022/04/30 07:07:19;;;;;;;5.47;4.97;;;11.20;99.90;;;;;;5090725;28;20524;-43
2022/04/30 07:09:46;;;;;;;5.10;4.57;;;11.30;99.90;;;;;;5090918;28;20475;-43
2022/04/30 07:12:14;;;;;;;5.10;4.67;;;11.30;99.90;;;;;;5090740;28;20445;-43
2022/04/30 07:14:44;;;;;;;9.80;5.20;;;11.20;99.90;;;;;;5090652;28;20815;-43
2022/04/30 07:17:12;;;;;;;5.67;5.00;;;11.30;99.90;;;;;;5091013;28;20443;-43
2022/04/30 07:19:40;;;;;;;6.07;5.53;;;11.30;99.90;;;;;;5090822;28;20825;-43
2022/04/30 07:22:08;;;;;;;7.30;4.30;;;11.50;99.90;;;;;;5090418;28;20472;-44
2022/04/30 07:24:35;;;;;;;4.00;3.60;;;11.70;99.90;;;;;;5092101;28;20447;-44
2022/04/30 07:27:04;;;;;;;5.03;3.60;;;11.90;98.60;;;;;;5095003;28;20458;-43
2022/04/30 07:29:31;;;;;;;5.07;4.67;;;12.20;98.40;;;;;;5094277;28;20471;-45
2022/04/30 07:31:59;;;;;;;4.20;3.40;;;12.10;98.90;;;;;;5094355;28;20865;-43
2022/04/30 07:34:27;;;;;;;4.77;4.30;;;12.10;99.20;;;;;;5094191;28;20928;-43
2022/04/30 07:36:54;;;;;;;4.10;3.80;;;12.20;99.20;;;;;;5094139;28;20479;-44
2022/04/30 07:39:21;;;;;;;4.80;3.83;;;12.20;98.50;;;;;;5093769;28;20967;-43
2022/04/30 07:41:49;;;;;;;4.00;3.70;;;12.20;97.80;;;;;;5094062;28;20526;-46
2022/04/30 07:44:17;;;;;;;4.00;3.70;;;12.60;98.60;;;;;;5093776;28;20942;-43
2022/04/30 07:46:44;;;;;;;5.00;4.50;;;12.60;98.20;;;;;;5093889;28;20444;-43
2022/04/30 07:49:12;;;;;;;5.20;4.70;;;12.60;98.00;;;;;;5093871;28;20464;-44
2022/04/30 07:51:52;;;;;;;4.17;3.70;;;13.00;98.00;;;;;;5093740;28;20524;-43
2022/04/30 07:54:20;;;;;;;4.90;3.47;;;13.40;98.10;;;;;;5093691;28;20440;-44
2022/04/30 07:56:47;;;;;;;4.10;3.80;;;13.80;96.10;;;;;;5093875;28;20494;-46
2022/04/30 07:59:14;;;;;;;5.10;3.87;;;14.20;95.90;;;;;;5093698;28;20475;-43
2022/04/30 08:01:41;;;;;;;4.97;3.87;;;14.50;96.20;;;;;;5093689;28;20436;-44
2022/04/30 08:04:08;;;;;;;4.10;3.70;;;14.60;96.50;;;;;;5093608;28;20497;-45
2022/04/30 08:06:36;;;;;;;5.33;3.40;;;14.80;96.40;;;;;;5093975;28;20876;-44
2022/04/30 08:09:03;;;;;;;4.33;3.53;;;14.80;96.30;;;;;;5093594;28;20550;-48
2022/04/30 08:11:30;;;;;;;5.87;3.60;;;14.90;94.90;;;;;;5093455;28;20475;-46
2022/04/30 08:13:57;;;;;;;3.77;3.47;;;15.10;93.80;;;;;;5093223;28;20928;-46
2022/04/30 08:16:24;;;;;;;4.10;3.43;;;15.10;94.70;;;;;;5093665;28;20496;-48
2022/04/30 08:18:51;;;;;;;5.00;4.07;;;15.10;94.50;;;;;;5093279;28;20495;-45
2022/04/30 08:21:18;;;;;;;4.73;4.00;;;15.30;93.90;;;;;;5093408;28;20446;-48
2022/04/30 08:23:46;;;;;;;3.77;3.40;;;15.10;93.30;;;;;;5092898;28;20474;-46
2022/04/30 08:26:13;;;;;;;3.50;3.20;;;15.10;92.90;;;;;;5093341;28;20830;-46
2022/04/30 08:28:40;;;;;;;3.33;3.00;;;14.40;94.20;;;;;;5093391;28;20495;-45
2022/04/30 08:31:07;;;;;;;4.00;3.60;;;13.90;94.80;;;;;;5092977;28;20971;-45
2022/04/30 08:33:34;;;;;;;4.90;3.57;;;13.90;96.20;;;;;;5092646;28;20920;-46
2022/04/30 08:36:01;;;;;;;3.90;3.57;;;13.80;95.40;;;;;;5092423;28;20494;-51
2022/04/30 08:38:28;;;;;;;4.53;4.00;;;13.90;95.20;;;;;;5093095;28;20460;-46
2022/04/30 08:40:57;;;;;;;4.40;3.60;;;14.20;95.70;;;;;;5093221;28;20799;-45
2022/04/30 08:43:24;;;;;;;33.50;24.90;;;14.40;95.90;;;;;;5092779;28;20812;-46
2022/04/30 08:45:51;;;;;;;6.30;5.70;;;14.60;95.80;;;;;;5092778;28;20471;-45
2022/04/30 08:48:18;;;;;;;7.50;4.30;;;14.70;95.20;;;;;;5092862;28;20830;-48
2022/04/30 08:50:47;;;;;;;4.50;4.10;;;15.30;94.30;;;;;;5092970;28;20821;-46
2022/04/30 08:53:14;;;;;;;4.90;3.63;;;15.50;93.90;;;;;;5092667;28;20445;-45
2022/04/30 08:55:41;;;;;;;4.13;3.33;;;15.80;94.00;;;;;;5092635;28;20924;-45
2022/04/30 08:58:10;;;;;;;5.30;3.87;;;16.10;93.00;;;;;;5092662;28;20533;-46
2022/04/30 09:00:42;;;;;;;4.57;4.17;;;16.10;92.00;;;;;;5092551;28;20860;-49
2022/04/30 09:03:09;;;;;;;4.73;4.20;;;16.00;93.10;;;;;;5092525;28;20448;-45
2022/04/30 09:05:38;;;;;;;6.80;3.90;;;16.20;92.00;;;;;;5092656;28;20940;-46
2022/04/30 09:08:06;;;;;;;6.17;3.73;;;16.40;93.00;;;;;;5092628;28;20459;-45
2022/04/30 09:10:35;;;;;;;4.73;4.33;;;16.50;92.00;;;;;;5092339;28;20475;-48
2022/04/30 09:13:12;;;;;;;3.90;3.60;;;16.30;90.80;;;;;;5092110;28;20534;-46
2022/04/30 09:15:41;;;;;;;7.73;4.13;;;16.20;90.30;;;;;;5092314;28;20561;-45
2022/04/30 09:18:09;;;;;;;5.20;4.17;;;16.00;90.80;;;;;;5092341;28;20525;-46
2022/04/30 09:20:44;;;;;;;5.57;4.47;;;15.90;91.40;;;;;;5092176;28;20481;-47
2022/04/30 09:23:11;;;;;;;5.03;4.60;;;15.50;91.30;;;;;;5091697;28;20932;-46
2022/04/30 09:25:52;;;;;;;4.50;4.10;;;15.40;91.40;;;;;;5091529;28;20467;-49
2022/04/30 09:28:26;;;;;;;5.20;4.33;;;15.20;91.70;;;;;;5092162;28;20466;-48
2022/04/30 09:31:04;;;;;;;4.93;4.57;;;15.00;92.90;;;;;;5091954;28;20569;-48
2022/04/30 09:33:31;;;;;;;5.23;4.60;;;14.90;92.40;;;;;;5091566;28;20546;-46
2022/04/30 09:38:58;;;;;;;6.60;4.87;;;14.90;92.90;;;;;;5048700;28;20444;-47
2022/04/30 09:41:28;;;;;;;5.47;4.97;;;15.10;93.70;;;;;;5081484;28;20948;-47
2022/04/30 09:44:05;;;;;;;5.70;5.20;;;15.20;92.90;;;;;;5091696;28;20494;-46
2022/04/30 09:46:33;;;;;;;6.13;5.63;;;14.90;93.30;;;;;;5091686;28;20435;-46
2022/04/30 09:54:33;;;;;;;6.53;6.00;;;15.30;95.20;;;;;;5091955;28;20419;-44
2022/04/30 09:57:01;;;;;;;5.93;5.33;;;15.50;94.00;;;;;;5091492;28;20875;-49
2022/04/30 09:59:31;;;;;;;5.43;4.97;;;15.70;95.30;;;;;;5092073;28;20553;-46
2022/04/30 10:02:00;;;;;;;4.97;4.57;;;15.80;94.30;;;;;;5091859;28;20451;-46
2022/04/30 10:04:28;;;;;;;5.93;5.43;;;16.00;95.00;;;;;;5091439;28;20538;-46
2022/04/30 10:06:56;;;;;;;6.80;6.20;;;16.10;93.30;;;;;;5091541;28;20478;-46
2022/04/30 10:09:27;;;;;;;6.57;5.97;;;15.80;94.20;;;;;;5091567;28;20871;-46
2022/04/30 10:12:06;;;;;;;7.40;6.70;;;15.60;95.30;;;;;;5091095;28;20478;-46
2022/04/30 10:14:47;;;;;;;8.50;6.47;;;15.70;96.20;;;;;;5091466;28;20490;-46
2022/04/30 10:17:17;;;;;;;7.87;6.60;;;15.70;95.10;;;;;;5091406;28;20471;-46
2022/04/30 10:19:45;;;;;;;17.27;6.33;;;15.60;95.00;;;;;;5091372;28;20463;-50
2022/04/30 10:22:14;;;;;;;8.57;5.20;;;15.50;95.40;;;;;;5090852;28;20439;-49
2022/04/30 10:24:46;;;;;;;9.40;6.50;;;15.30;96.00;;;;;;5090942;28;21023;-47
2022/04/30 10:27:14;;;;;;;25.63;7.10;;;15.40;96.30;;;;;;5091145;28;20884;-46
2022/04/30 10:29:54;;;;;;;6.37;5.70;;;15.40;94.70;;;;;;5091161;28;21011;-47
2022/04/30 10:32:32;;;;;;;48.57;11.80;;;15.40;93.90;;;;;;5091083;28;20485;-47
2022/04/30 10:35:00;;;;;;;149.10;22.30;;;15.30;94.60;;;;;;5090222;28;20476;-48
2022/04/30 10:37:32;;;;;;;6.33;5.73;;;15.30;94.00;;;;;;5090665;28;20432;-46
2022/04/30 10:40:01;;;;;;;5.53;5.00;;;15.30;93.80;;;;;;5090752;28;20431;-49
2022/04/30 10:42:29;;;;;;;5.90;5.30;;;15.40;95.00;;;;;;5089356;28;20431;-48
2022/04/30 10:44:58;;;;;;;5.43;4.93;;;15.50;94.50;;;;;;5089472;28;20479;-46
2022/04/30 10:47:25;;;;;;;13.60;6.63;;;15.40;94.40;;;;;;5090465;28;20787;-46
2022/04/30 10:49:52;;;;;;;5.87;5.00;;;15.40;94.90;;;;;;5090515;28;20527;-50
2022/04/30 10:52:21;;;;;;;19.03;7.07;;;15.40;95.90;;;;;;5089304;28;20514;-45
2022/04/30 10:54:50;;;;;;;5.93;5.13;;;15.30;93.80;;;;;;5089069;28;20790;-46
2022/04/30 10:57:17;;;;;;;39.13;10.47;;;15.20;96.00;;;;;;5089078;28;20439;-47
2022/04/30 10:59:44;;;;;;;323.57;41.80;;;15.10;95.10;;;;;;5093058;28;20503;-46
2022/04/30 11:02:13;;;;;;;81.77;11.63;;;14.90;96.00;;;;;;5094121;28;20466;-48
2022/04/30 11:04:43;;;;;;;6.67;5.97;;;14.70;95.20;;;;;;5094814;28;20519;-46
2022/04/30 11:07:10;;;;;;;6.40;5.50;;;14.60;97.40;;;;;;5095209;28;20526;-46
2022/04/30 11:09:43;;;;;;;58.27;11.67;;;14.40;97.90;;;;;;5094577;28;20502;-47
2022/04/30 11:12:14;;;;;;;13.40;7.50;;;14.10;97.90;;;;;;5093906;28;20477;-46
2022/04/30 11:14:42;;;;;;;71.80;13.20;;;13.80;98.20;;;;;;5094562;28;20439;-46
2022/04/30 11:17:09;;;;;;;13.70;8.30;;;13.90;99.90;;;;;;5094663;28;20443;-46
2022/04/30 11:19:43;;;;;;;6.87;5.93;;;13.70;99.60;;;;;;5094408;28;20455;-46
2022/04/30 11:22:11;;;;;;;8.80;6.13;;;13.70;99.90;;;;;;5094322;28;20928;-47
2022/04/30 11:24:38;;;;;;;7.43;6.73;;;13.60;99.90;;;;;;5094721;28;20852;-47
2022/04/30 11:27:08;;;;;;;8.50;6.10;;;13.30;99.90;;;;;;5094689;28;20801;-46
2022/04/30 11:29:36;;;;;;;7.63;6.10;;;13.30;99.90;;;;;;5092133;28;20500;-47
2022/04/30 11:32:05;;;;;;;19.33;7.40;;;13.30;99.90;;;;;;5095082;28;20524;-46
2022/04/30 11:34:32;;;;;;;21.43;8.60;;;13.20;99.90;;;;;;5094163;28;20868;-41
2022/04/30 11:37:02;;;;;;;9.27;7.17;;;13.10;99.90;;;;;;5092016;28;20486;-41
2022/04/30 11:39:30;;;;;;;29.63;8.90;;;13.10;99.90;;;;;;5093629;28;20459;-45
2022/04/30 11:41:57;;;;;;;6.93;6.30;;;13.10;99.90;;;;;;5093860;28;20488;-40
2022/04/30 11:44:25;;;;;;;7.00;6.30;;;13.00;99.90;;;;;;5093285;28;20738;-46
2022/04/30 11:46:54;;;;;;;6.40;5.90;;;12.90;99.90;;;;;;5094159;28;20467;-45
2022/04/30 11:49:22;;;;;;;10.13;6.60;;;12.80;99.90;;;;;;5093206;28;20463;-41
2022/04/30 11:51:50;;;;;;;138.50;19.00;;;12.80;99.90;;;;;;5093701;28;20477;-41
2022/04/30 11:54:20;;;;;;;15.43;6.43;;;12.70;99.90;;;;;;5093137;28;20469;-40
2022/04/30 11:56:48;;;;;;;24.57;10.20;;;12.60;99.90;;;;;;5093669;28;20540;-38
2022/04/30 11:59:16;;;;;;;6.53;5.87;;;12.60;99.90;;;;;;5094205;28;20552;-46
2022/04/30 12:01:44;;;;;;;9.00;6.47;;;12.40;99.90;;;;;;5091929;28;20522;-47
2022/04/30 12:04:14;;;;;;;9.13;6.97;;;12.30;99.90;;;;;;5091279;28;20447;-47
2022/04/30 12:06:43;;;;;;;5.97;5.47;;;12.20;99.90;;;;;;5091276;28;20447;-47
2022/04/30 12:09:15;;;;;;;10.27;7.00;;;12.00;99.90;;;;;;5090885;28;20896;-47
2022/04/30 12:11:44;;;;;;;7.63;6.77;;;12.00;99.90;;;;;;5090779;28;20511;-46
2022/04/30 12:14:11;;;;;;;7.23;6.53;;;11.80;99.90;;;;;;5091276;28;20539;-46
2022/04/30 12:16:40;;;;;;;6.60;6.00;;;11.60;99.90;;;;;;5092170;28;20443;-46
2022/04/30 12:24:58;;;;;;;7.77;6.97;;;11.40;99.90;;;;;;5093433;28;20419;-46
2022/04/30 12:27:28;;;;;;;6.50;5.30;;;11.30;99.90;;;;;;5094189;28;20447;-46
2022/04/30 12:30:04;;;;;;;5.70;5.20;;;11.20;99.90;;;;;;5093675;28;20451;-45
2022/04/30 12:32:33;;;;;;;5.40;4.80;;;11.10;99.90;;;;;;5094510;28;20479;-45
2022/04/30 12:35:01;;;;;;;9.60;5.17;;;10.90;99.90;;;;;;5094929;28;20469;-46
2022/04/30 12:37:35;;;;;;;5.40;4.90;;;10.70;99.90;;;;;;5094425;28;20470;-45
2022/04/30 12:40:02;;;;;;;7.40;6.70;;;10.60;99.90;;;;;;5093859;28;20450;-45
2022/04/30 12:42:30;;;;;;;6.00;5.40;;;10.50;99.90;;;;;;5093606;28;20463;-45
2022/04/30 12:44:58;;;;;;;5.20;4.70;;;10.50;99.90;;;;;;5094450;28;20443;-45
2022/04/30 12:47:25;;;;;;;5.23;4.77;;;10.40;99.90;;;;;;5094608;28;20965;-45
2022/04/30 12:49:52;;;;;;;5.40;4.90;;;10.50;99.90;;;;;;5094369;28;20459;-46
2022/04/30 12:52:19;;;;;;;5.73;5.23;;;10.50;99.90;;;;;;5093190;28;20532;-45
2022/04/30 12:54:46;;;;;;;5.50;5.00;;;10.40;99.90;;;;;;5093591;28;20777;-49
2022/04/30 12:57:13;;;;;;;5.10;4.70;;;10.30;99.90;;;;;;5093670;28;20545;-46
2022/04/30 12:59:42;;;;;;;6.37;5.77;;;10.30;99.90;;;;;;5093252;28;20473;-46
2022/04/30 13:02:09;;;;;;;5.10;4.60;;;10.20;99.90;;;;;;5092884;28;20534;-46
2022/04/30 13:04:37;;;;;;;7.33;5.03;;;10.20;99.90;;;;;;5093475;28;20929;-50
2022/04/30 13:07:05;;;;;;;8.07;4.40;;;10.10;99.90;;;;;;5093480;28;20439;-47
2022/04/30 13:14:59;;;;;;;5.37;4.87;;;9.90;99.90;;;;;;5069742;28;20512;-48
2022/04/30 13:17:26;;;;;;;4.43;4.10;;;9.90;99.90;;;;;;5093503;28;20443;-50
2022/04/30 13:19:53;;;;;;;4.03;3.60;;;9.80;99.90;;;;;;5093772;28;21111;-53
2022/04/30 13:22:20;;;;;;;3.47;3.17;;;9.80;99.90;;;;;;5092333;28;20432;-50
2022/04/30 13:24:47;;;;;;;6.23;3.70;;;9.80;99.90;;;;;;5094202;28;20474;-50
2022/04/30 13:27:14;;;;;;;5.40;3.67;;;9.80;99.90;;;;;;5094034;28;20893;-51
2022/04/30 13:29:41;;;;;;;2.73;2.53;;;9.80;99.90;;;;;;5094802;28;20519;-51
2022/04/30 13:32:11;;;;;;;3.20;2.90;;;9.70;99.90;;;;;;5094563;28;20845;-52
2022/04/30 13:34:38;;;;;;;5.00;4.60;;;9.80;99.90;;;;;;5095231;28;20939;-51
2022/04/30 13:37:05;;;;;;;6.97;6.40;;;9.70;99.90;;;;;;5094722;28;20459;-51
2022/04/30 13:39:32;;;;;;;5.23;4.93;;;9.70;99.90;;;;;;5095434;28;20493;-50
2022/04/30 13:41:59;;;;;;;3.20;3.00;;;9.60;99.90;;;;;;5093754;28;20947;-50